Latest Coastal Weather Observations for Holmes Reef

IDQ60701

Issued at 10:12 am EST Tuesday 27 June 2017 (issued every 10 minutes, with the page automatically refreshed every 10 minutes)

About coastal observations | Map of coastal stations | Coastal observations for QLD | Marine services | Other Formats
Station Details ID: 200732 Name: HOLMES REEF Lat: -16.47 Lon: 147.87 Height: 1.9 m
Data from the previous 72 hours. | See also: Recent months at Holmes Reef
Date/Time
EST
Temp
°C
Wind Pressure Rain since
9am
mm
Weather Cloud Vis
km
Sea
Height
m
Swell
Dir  Spd
kts
Gust
kts
hPa Trend Height
m
Period
s
Dir
27/10:00am 24.6 ESE 19 22 1017.6 - - - - - - - - -
27/09:30am 24.8 ESE 20 23 1017.5 - - - - - - - - -
27/09:15am 24.6 ESE 21 - 1017.2 - - - - - - - - -
27/09:00am 24.9 ESE 19 22 1017.6 - - - - - - - - -
27/08:30am 24.5 ESE 20 22 1017.5 - - - - - - - - -
27/08:15am 24.7 SE 18 - 1017.1 - - - - - - - - -
27/08:00am 24.6 SE 19 22 1017.3 - - - - - - - - -
27/07:30am 24.5 SE 19 22 1016.8 - - - - - - - - -
27/07:15am 24.4 SE 18 - 1016.3 - - - - - - - - -
27/07:00am 24.6 ESE 18 21 1016.4 - - - - - - - - -
27/06:30am 24.5 ESE 19 23 1016.2 - - - - - - - - -
27/06:15am 24.5 SE 19 - 1015.8 - - - - - - - - -
27/06:00am 24.6 SE 18 21 1016.1 - - - - - - - - -
27/05:30am 24.6 SE 18 21 1016.0 - - - - - - - - -
27/05:15am 24.5 SE 18 - 1015.6 - - - - - - - - -
27/05:00am 24.4 ESE 19 22 1015.8 - - - - - - - - -
27/04:30am 24.5 ESE 18 21 1015.9 - - - - - - - - -
27/04:15am 24.6 ESE 18 - 1015.6 - - - - - - - - -
27/04:00am 24.4 ESE 18 20 1016.0 - - - - - - - - -
27/03:30am 24.6 ESE 19 22 1016.0 - - - - - - - - -
27/03:15am 24.4 ESE 19 - 1015.7 - - - - - - - - -
27/03:00am 24.6 ESE 18 21 1016.0 - - - - - - - - -
27/02:30am 24.5 ESE 19 21 1016.2 - - - - - - - - -
27/02:15am 24.6 ESE 18 - 1016.1 - - - - - - - - -
27/02:00am 24.3 ESE 19 21 1016.5 - - - - - - - - -
27/01:30am 24.4 ESE 18 20 1016.8 - - - - - - - - -
27/01:15am 24.3 ESE 17 - 1016.7 - - - - - - - - -
27/01:00am 24.3 ESE 17 21 1017.1 - - - - - - - - -
27/12:30am 24.4 ESE 18 20 1017.3 - - - - - - - - -
27/12:15am 24.8 ESE 17 - 1017.1 - - - - - - - - -
27/12:00am 24.4 ESE 18 20 1017.4 - - - - - - - - -
 
Date/Time
EST
Temp
°C
Wind Pressure Rain since
9am
mm
Weather Cloud Vis
km
Sea
Height
m
Swell
Dir  Spd
kts
Gust
kts
hPa Trend Height
m
Period
s
Dir
26/11:30pm 24.5 ESE 19 23 1017.5 - - - - - - - - -
26/11:15pm 24.4 E 19 - 1017.2 - - - - - - - - -
26/11:00pm 24.4 ESE 17 21 1017.6 - - - - - - - - -
26/10:30pm 24.4 ESE 21 25 1017.7 - - - - - - - - -
26/10:15pm 24.9 ESE 20 - 1017.5 - - - - - - - - -
26/10:00pm 24.5 ESE 19 22 1017.8 - - - - - - - - -
26/09:30pm 24.6 ESE 18 21 1017.9 - - - - - - - - -
26/09:15pm 24.5 ESE 19 - 1017.5 - - - - - - - - -
26/09:00pm 24.5 ESE 21 23 1017.5 - - - - - - - - -
26/08:30pm 24.6 ESE 20 23 1017.3 - - - - - - - - -
26/08:15pm 24.7 ESE 21 - 1016.9 - - - - - - - - -
26/08:00pm 24.5 ESE 20 23 1017.1 - - - - - - - - -
26/07:30pm 24.4 ESE 19 22 1016.9 - - - - - - - - -
26/07:15pm 24.5 ESE 20 - 1016.4 - - - - - - - - -
26/07:00pm 24.5 ESE 19 24 1016.7 - - - - - - - - -
26/06:30pm 24.6 ESE 19 23 1016.6 - - - - - - - - -
26/06:15pm 24.5 ESE 19 - 1016.0 - - - - - - - - -
26/06:00pm 24.6 ESE 21 24 1016.2 - - - - - - - - -
26/05:30pm 24.8 SE 20 23 1016.1 - - - - - - - - -
26/05:15pm 24.7 SE 20 - 1015.6 - - - - - - - - -
26/05:00pm 24.9 SE 20 23 1015.9 - - - - - - - - -
26/04:30pm 24.6 ESE 20 23 1015.7 - - - - - - - - -
26/04:15pm 24.9 SE 20 - 1015.3 - - - - - - - - -
26/04:00pm 24.8 SE 20 23 1015.5 - - - - - - - - -
26/03:30pm 24.9 SE 19 22 1015.4 - - - - - - - - -
26/03:15pm 24.6 SE 20 - 1015.1 - - - - - - - - -
26/03:00pm 24.7 ESE 19 23 1015.3 - - - - - - - - -
26/02:30pm 24.8 ESE 19 23 1015.2 - - - - - - - - -
26/02:15pm 24.2 ESE 16 - 1015.1 - - - - - - - - -
26/02:00pm 24.1 SE 18 20 1015.5 - - - - - - - - -
26/01:30pm 22.3 SE 23 26 1015.7 - - - - - - - - -
26/01:21pm 23.5 SE 21 26 1015.7 - - - - - - - - -
26/01:15pm 22.9 E 14 - 1015.6 - - - - - - - - -
26/01:00pm 22.7 E 17 20 1016.1 - - - - - - - - -
26/12:30pm 21.7 E 16 20 1016.6 - - - - - - - - -
26/12:15pm 21.9 ESE 12 - 1016.5 - - - - - - - - -
26/12:00pm 21.5 ESE 16 21 1017.0 - - - - - - - - -
26/11:30am 22.4 E 20 25 1017.2 - - - - - - - - -
26/11:19am 23.0 E 20 22 1017.3 - - - - - - - - -
26/11:15am 23.0 SE 19 - 1016.9 - - - - - - - - -
26/11:00am 22.8 SE 19 22 1017.3 - - - - - - - - -
26/10:30am 23.0 SSE 20 22 1017.3 - - - - - - - - -
26/10:15am 23.4 SE 19 - 1016.9 - - - - - - - - -
26/10:00am 23.7 SE 19 23 1017.3 - - - - - - - - -
26/09:30am 23.5 SE 19 22 1017.2 - - - - - - - - -
26/09:15am 23.5 SE 20 - 1017.0 - - - - - - - - -
26/09:00am 23.7 SE 19 22 1017.1 - - - - - - - - -
26/08:30am 23.8 ESE 20 22 1016.7 - - - - - - - - -
26/08:15am 23.5 ESE 19 - 1016.3 - - - - - - - - -
26/08:00am 23.5 ESE 19 22 1016.5 - - - - - - - - -
26/07:30am 24.3 ESE 19 21 1016.0 - - - - - - - - -
26/07:15am 24.1 SE 18 - 1015.4 - - - - - - - - -
26/07:00am 23.9 SE 18 19 1015.6 - - - - - - - - -
26/06:30am 24.0 SE 17 20 1015.4 - - - - - - - - -
26/06:15am 23.7 SE 17 - 1014.8 - - - - - - - - -
26/06:00am 24.1 SE 17 19 1015.1 - - - - - - - - -
26/05:30am 24.2 ESE 16 18 1015.0 - - - - - - - - -
26/05:15am 24.2 ESE 14 - 1014.7 - - - - - - - - -
26/05:00am 24.1 SE 8 10 1015.1 - - - - - - - - -
26/04:30am 23.9 SE 10 25 1015.2 - - - - - - - - -
26/04:15am 23.0 SE 21 - 1014.6 - - - - - - - - -
26/04:00am 23.8 ESE 16 17 1015.0 - - - - - - - - -
26/03:30am 23.8 SE 18 21 1015.0 - - - - - - - - -
26/03:15am 23.8 SE 16 - 1014.6 - - - - - - - - -
26/03:00am 23.8 SE 16 18 1015.1 - - - - - - - - -
26/02:30am 23.9 SE 18 21 1015.1 - - - - - - - - -
26/02:15am 24.0 SE 18 - 1014.8 - - - - - - - - -
26/02:00am 24.1 SE 17 20 1015.3 - - - - - - - - -
26/01:30am 23.9 SE 14 21 1015.5 - - - - - - - - -
26/01:15am 23.8 SSE 18 - 1015.5 - - - - - - - - -
26/01:00am 23.5 E 16 23 1016.0 - - - - - - - - -
26/12:30am 24.4 SE 17 20 1016.0 - - - - - - - - -
26/12:15am 24.6 SE 19 - 1015.8 - - - - - - - - -
26/12:00am 24.5 SE 18 22 1016.1 - - - - - - - - -
 
Date/Time
EST
Temp
°C
Wind Pressure Rain since
9am
mm
Weather Cloud Vis
km
Sea
Height
m
Swell
Dir  Spd
kts
Gust
kts
hPa Trend Height
m
Period
s
Dir
25/11:30pm 24.7 ESE 18 21 1016.1 - - - - - - - - -
25/11:15pm 24.4 SE 19 - 1015.8 - - - - - - - - -
25/11:00pm 24.7 SE 19 22 1016.1 - - - - - - - - -
25/10:30pm 24.5 SE 19 22 1016.2 - - - - - - - - -
25/10:15pm 24.4 SE 18 - 1016.0 - - - - - - - - -
25/10:00pm 24.4 SE 20 23 1016.3 - - - - - - - - -
25/09:39pm 24.6 SE 18 23 1016.3 - - - - - - - - -
25/09:30pm 23.8 E 20 24 1016.2 - - - - - - - - -
25/09:28pm 24.0 E 20 24 1016.2 - - - - - - - - -
25/09:15pm 24.4 ESE 18 - 1015.8 - - - - - - - - -
25/09:00pm 24.5 SE 19 22 1016.0 - - - - - - - - -
25/08:30pm 24.7 SE 17 20 1015.6 - - - - - - - - -
25/08:15pm 24.7 SE 18 - 1015.2 - - - - - - - - -
25/08:06pm 24.7 SE 16 20 1015.3 - - - - - - - - -
25/08:00pm 24.6 ESE 2 3 1015.3 - - - - - - - - -
25/07:30pm 24.7 SE 2 4 1015.1 - - - - - - - - -
25/07:15pm 24.8 ESE 2 - 1014.8 - - - - - - - - -
25/07:00pm 24.7 ESE 2 3 1015.0 - - - - - - - - -
25/06:30pm 24.6 SE 2 3 1014.7 - - - - - - - - -
25/06:15pm 24.6 SE 2 - 1014.2 - - - - - - - - -
25/06:00pm 24.6 SE 2 3 1014.3 - - - - - - - - -
25/05:30pm 24.6 ESE 16 19 1014.1 - - - - - - - - -
25/05:15pm 24.8 SE 16 - 1013.8 - - - - - - - - -
25/05:00pm 24.7 SE 16 19 1014.0 - - - - - - - - -
25/04:30pm 24.5 SE 16 19 1014.1 - - - - - - - - -
25/04:15pm 24.9 SE 15 - 1013.7 - - - - - - - - -
25/04:00pm 24.9 SE 15 17 1014.0 - - - - - - - - -
25/03:30pm 25.2 SE 15 18 1013.9 - - - - - - - - -
25/03:15pm 24.9 SE 16 - 1013.5 - - - - - - - - -
25/03:00pm 24.7 SE 16 18 1013.7 - - - - - - - - -
25/02:30pm 24.9 SE 15 17 1013.8 - - - - - - - - -
25/02:15pm 25.0 SE 16 - 1013.6 - - - - - - - - -
25/02:00pm 24.6 SE 15 18 1013.9 - - - - - - - - -
25/01:30pm 24.7 SE 15 18 1014.1 - - - - - - - - -
25/01:15pm 24.6 SE 16 - 1013.9 - - - - - - - - -
25/01:00pm 24.6 SE 17 18 1014.3 - - - - - - - - -
25/12:30pm 24.6 SE 15 17 1014.9 - - - - - - - - -
25/12:15pm 24.8 SE 15 - 1014.9 - - - - - - - - -
25/12:00pm 24.8 SE 15 17 1015.5 - - - - - - - - -
25/11:30am 24.7 SE 16 18 1015.6 - - - - - - - - -
25/11:15am 24.5 SE 17 - 1015.4 - - - - - - - - -
25/11:00am 24.7 SE 17 19 1015.7 - - - - - - - - -
25/10:30am 24.4 SE 17 19 1016.0 - - - - - - - - -
25/10:15am 24.5 SE 18 - 1015.8 - - - - - - - - -
25/10:00am 24.7 SE 18 21 1016.1 - - - - - - - - -
25/09:30am 24.8 SE 18 20 1015.9 - - - - - - - - -
25/09:15am 24.5 SE 17 - 1015.6 - - - - - - - - -
25/09:00am 24.6 SE 18 20 1016.0 - - - - - - - - -
25/08:30am 24.6 SE 18 20 1015.8 - - - - - - - - -
25/08:15am 24.7 ESE 18 - 1015.4 - - - - - - - - -
25/08:00am 24.7 SE 18 21 1015.5 - - - - - - - - -
25/07:30am 24.5 SE 19 21 1014.9 - - - - - - - - -
25/07:15am 24.4 ESE 19 - 1014.5 - - - - - - - - -
25/07:00am 24.5 SE 19 21 1014.6 - - - - - - - - -
25/06:30am 24.3 SE 18 20 1014.2 - - - - - - - - -
25/06:15am 24.4 SE 18 - 1013.9 - - - - - - - - -
25/06:00am 24.4 SE 18 20 1014.0 - - - - - - - - -
25/05:30am 24.4 ESE 18 19 1013.9 - - - - - - - - -
25/05:15am 24.3 SE 18 - 1013.5 - - - - - - - - -
25/05:00am 24.3 SE 19 21 1013.7 - - - - - - - - -
25/04:30am 24.3 ESE 19 21 1013.7 - - - - - - - - -
25/04:15am 24.4 SE 19 - 1013.5 - - - - - - - - -
25/04:00am 24.2 ESE 20 22 1013.8 - - - - - - - - -
25/03:30am 24.2 ESE 19 22 1013.7 - - - - - - - - -
25/03:15am 24.4 ESE 18 - 1013.6 - - - - - - - - -
25/03:00am 24.4 ESE 18 21 1014.0 - - - - - - - - -
25/02:30am 24.4 ESE 19 21 1014.1 - - - - - - - - -
25/02:15am 24.4 ESE 18 - 1013.8 - - - - - - - - -
25/02:00am 24.4 ESE 18 20 1014.2 - - - - - - - - -
25/01:30am 24.3 ESE 17 20 1014.5 - - - - - - - - -
25/01:15am 24.3 ESE 17 - 1014.4 - - - - - - - - -
25/01:00am 24.3 ESE 17 19 1014.9 - - - - - - - - -
25/12:30am 24.6 ESE 18 20 1015.0 - - - - - - - - -
25/12:15am 24.5 E 17 - 1014.8 - - - - - - - - -
25/12:00am 24.4 ESE 18 21 1015.1 - - - - - - - - -
 
Date/Time
EST
Temp
°C
Wind Pressure Rain since
9am
mm
Weather Cloud Vis
km
Sea
Height
m
Swell
Dir  Spd
kts
Gust
kts
hPa Trend Height
m
Period
s
Dir
24/11:30pm 24.4 E 18 20 1015.1 - - - - - - - - -
24/11:15pm 24.6 E 18 - 1014.9 - - - - - - - - -
24/11:00pm 24.4 E 18 21 1015.2 - - - - - - - - -
24/10:30pm 24.6 E 19 21 1015.2 - - - - - - - - -
24/10:15pm 24.6 E 19 - 1015.0 - - - - - - - - -
24/10:00pm 24.6 E 19 22 1015.4 - - - - - - - - -
24/09:30pm 24.7 ESE 18 21 1015.5 - - - - - - - - -
24/09:15pm 24.7 ESE 18 - 1015.2 - - - - - - - - -
24/09:00pm 24.7 ESE 19 21 1015.5 - - - - - - - - -
24/08:30pm 24.7 ESE 18 21 1015.1 - - - - - - - - -
24/08:15pm 24.8 ESE 18 - 1014.8 - - - - - - - - -
24/08:00pm 24.8 ESE 18 21 1015.0 - - - - - - - - -
24/07:30pm 24.9 ESE 18 20 1014.9 - - - - - - - - -
24/07:15pm 24.7 ESE 18 - 1014.5 - - - - - - - - -
24/07:00pm 24.5 ESE 18 22 1014.6 - - - - - - - - -
24/06:30pm 24.7 ESE 19 22 1014.4 - - - - - - - - -
24/06:15pm 24.7 ESE 19 - 1014.0 - - - - - - - - -
24/06:00pm 24.9 ESE 18 21 1014.2 - - - - - - - - -
24/05:30pm 24.7 SE 18 21 1013.9 - - - - - - - - -
24/05:15pm 24.8 SE 18 - 1013.6 - - - - - - - - -
24/05:00pm 24.6 ESE 18 22 1013.8 - - - - - - - - -
24/04:30pm 25.2 SE 17 21 1013.6 - - - - - - - - -
24/04:15pm 25.1 SE 16 - 1013.1 - - - - - - - - -
24/04:00pm 25.1 SE 17 19 1013.3 - - - - - - - - -
24/03:30pm 24.9 SE 18 21 1013.1 - - - - - - - - -
24/03:15pm 24.8 SE 18 - 1012.8 - - - - - - - - -
24/03:00pm 24.8 SE 18 20 1013.3 - - - - - - - - -
24/02:30pm 24.7 SE 18 21 1013.3 - - - - - - - - -
24/02:15pm 24.7 SE 18 - 1013.0 - - - - - - - - -
24/02:00pm 24.7 ESE 18 21 1013.3 - - - - - - - - -
24/01:30pm 24.5 ESE 18 20 1013.4 - - - - - - - - -
24/01:15pm 24.6 ESE 18 - 1013.2 - - - - - - - - -
24/01:00pm 24.7 ESE 18 20 1013.7 - - - - - - - - -
24/12:30pm 25.0 ESE 18 21 1014.1 - - - - - - - - -
24/12:15pm 24.4 ESE 19 - 1013.9 - - - - - - - - -
24/12:00pm 23.9 SE 16 18 1014.3 - - - - - - - - -
24/11:30am 24.4 ESE 20 25 1014.7 - - - - - - - - -
24/11:15am 24.7 ESE 17 - 1014.5 - - - - - - - - -
24/11:00am 24.6 E 17 20 1014.9 - - - - - - - - -
24/10:30am 24.3 SE 17 19 1015.0 - - - - - - - - -
24/10:15am 24.2 SE 16 - 1014.7 - - - - - - - - -

Other Formats:

Comma delimited format used in spreadsheet applications
http://www.bom.gov.au/fwo/IDQ60701/IDQ60701.94289.axf

JavaScript Object Notation format (JSON) in row-major order
http://www.bom.gov.au/fwo/IDQ60701/IDQ60701.94289.json